Lethbridge County Airport
CYQL : rendu visible

Aérodrome :











RETROUVEZ-NOUS SUR...

 
LOGIN :

S'inscrire | Disclaimer

   EN    FR    IT 

 









Légende :    VFR   VFR Marginal   IFR   IFR Intensif   IFR Très Intensif
Visi : 
Plafond : 
>= 8 km
>= 3000ft
5 à 8 km
1000 à 3000 ft
1500m à 5 km
500 à 1000 ft
800 à 1500m
200 à 500 ft
< 800m
< 200 ft
Symboles :   Orages  Brouillard  Fortes neiges  Fortes précipitations  Vent > 20 kt






- Altitude de l'aérodrome : 3047 ft
- Code IATA : YQL


CYQL - Lethbridge County

DERNIER METAR :
  • 301636Z 07008KT 1SM BR OVC002 M02/M02 A2984 RMK ST8 SLP141

METARs EXPIRÉS :
  • 301600Z 08009KT 1/2SM FZFG VV003 M03/M03 A2985 RMK FG8 SLP145
  • 301400Z 06009KT 1/4SM FZFG VV002 M03/M03 A2986 RMK FG8 SLP143

TAF AMD TAF CYQL
Valide du 30 à 15h jusqu'au 31 à 00h UTC


301507Z 3015/3024 07010KT 1/2SM FZFG VV002
TEMPO 3015/3017 4SM -SN BR OVC006
FM301700 07012KT P6SM OVC010
TEMPO 3017/3020 2SM -SN BR OVC005
BECMG 3018/3020 18018KT
FM302000 18018G28KT P6SM FEW010 SCT070 RMK FCST BASED ON AUTO OBS. NXT FCST BY 301800Z



MET'MAP, la Météo Aéronautique d'un coup d'oeil ! - Copyright ORBIFLY Décembre 2007 - Disclaimer

ORBIFLY MET'MAP TEAM :

Programmation & Développement : Alexandra Zaïnal
Sur une idée originale de : Baudouin d'Aumeries
Assistance à la programmation : Marc-Olivier Méhu
Soutien technique & logistique : Manuel Goepfert

Contact : metmap@orbifly.com




SOURCES & CREDITS :

   NOAA       Earth
Advisory